Time;durP1;ratioP1;P1;durP2;ratioP2;P2;SDS_P1;SDS_P2;PMS_P1;PMS_P2;Temp;Humidity;BMP_temperature;BMP_pressure;BME280_temperature;BME280_humidity;BME280_pressure;Samples;Min_cycle;Max_cycle;Signal;HPM_P1;HPM_P2
2021/11/28 00:02:17;;;;;;;;;0.00;0.00;;;;;20.76;40.61;99822.78;5026576;28;46116;-71
2021/11/28 00:04:43;;;;;;;;;0.00;0.00;;;;;20.79;40.95;99832.94;5022972;28;45499;-71
2021/11/28 00:07:22;;;;;;;;;1.00;0.00;;;;;20.78;40.77;99839.25;5022186;27;45534;-70
2021/11/28 00:12:39;;;;;;;;;0.00;0.00;;;;;20.78;40.62;99828.69;5019904;28;45484;-71
2021/11/28 00:15:12;;;;;;;;;0.00;0.00;;;;;20.77;40.89;99842.91;5025687;28;45518;-70
2021/11/28 00:17:38;;;;;;;;;0.00;0.00;;;;;20.78;40.66;99847.19;5019545;27;45396;-70
2021/11/28 00:20:08;;;;;;;;;0.00;0.00;;;;;20.70;40.64;99831.47;5022122;27;45662;-70
2021/11/28 00:22:34;;;;;;;;;0.00;0.00;;;;;20.78;40.86;99852.47;5023407;28;46541;-72
2021/11/28 00:24:59;;;;;;;;;0.00;0.00;;;;;20.78;40.71;99859.59;5021304;28;47115;-71
2021/11/28 00:27:24;;;;;;;;;0.00;0.00;;;;;20.70;40.92;99850.00;5020821;28;45809;-71
2021/11/28 00:29:50;;;;;;;;;0.00;0.00;;;;;20.70;40.71;99855.28;5021233;28;45469;-71
2021/11/28 00:32:15;;;;;;;;;0.00;0.00;;;;;20.76;40.93;99854.50;5023408;28;45487;-72
2021/11/28 00:34:41;;;;;;;;;0.00;0.00;;;;;20.75;40.71;99863.44;5019211;28;45563;-71
2021/11/28 00:37:08;;;;;;;;;0.00;0.00;;;;;20.71;40.85;99857.72;5018716;28;45505;-71
2021/11/28 00:39:33;;;;;;;;;0.00;0.00;;;;;20.62;40.84;99845.69;5038017;27;45475;-67
2021/11/28 00:42:00;;;;;;;;;2.50;1.00;;;;;20.81;40.77;99870.59;5023192;27;46213;-67
2021/11/28 00:44:26;;;;;;;;;0.50;0.50;;;;;20.85;40.50;99863.91;5028693;28;45523;-68
2021/11/28 00:46:51;;;;;;;;;0.00;0.00;;;;;20.88;40.62;99865.31;5016992;28;45453;-68
2021/11/28 00:49:17;;;;;;;;;0.00;0.00;;;;;20.91;40.52;99866.75;5017465;28;45333;-67
2021/11/28 00:51:52;;;;;;;;;0.00;0.00;;;;;20.93;40.33;99870.84;5019352;28;47090;-68
2021/11/28 00:54:17;;;;;;;;;0.00;0.00;;;;;20.93;40.14;99860.25;5019558;27;45613;-68
2021/11/28 00:56:43;;;;;;;;;0.00;0.00;;;;;20.96;40.33;99877.56;5019183;28;45270;-68
2021/11/28 00:59:09;;;;;;;;;0.50;0.00;;;;;20.95;40.05;99868.00;5020032;28;45617;-67
2021/11/28 01:01:35;;;;;;;;;0.00;0.00;;;;;20.85;39.71;99855.13;5016315;28;47252;-68
2021/11/28 01:04:01;;;;;;;;;0.00;0.00;;;;;20.95;39.91;99871.47;5030046;28;45398;-68
2021/11/28 01:06:26;;;;;;;;;0.00;0.00;;;;;20.97;39.94;99876.56;5020241;28;45320;-67
2021/11/28 01:08:52;;;;;;;;;0.00;0.00;;;;;20.96;39.91;99881.03;5019328;28;45449;-68
2021/11/28 01:11:19;;;;;;;;;1.00;1.00;;;;;20.98;39.79;99880.00;5019065;28;46000;-68
2021/11/28 01:13:44;;;;;;;;;1.50;1.00;;;;;20.97;39.57;99892.44;5016357;28;45689;-67
2021/11/28 01:16:10;;;;;;;;;1.25;0.00;;;;;20.91;39.80;99869.41;5016372;28;45839;-68
2021/11/28 01:18:35;;;;;;;;;0.00;0.00;;;;;20.91;39.66;99886.09;5012543;28;45329;-68
2021/11/28 01:21:03;;;;;;;;;1.50;0.00;;;;;20.87;39.54;99882.19;5023350;28;45902;-67
2021/11/28 01:23:28;;;;;;;;;0.00;0.00;;;;;20.85;39.51;99881.56;5014351;28;45431;-67
2021/11/28 01:25:54;;;;;;;;;1.00;1.00;;;;;20.91;39.47;99887.91;5031692;28;45535;-68
2021/11/28 01:28:19;;;;;;;;;1.75;1.75;;;;;20.87;39.49;99879.53;5032551;28;45552;-67
2021/11/28 01:30:44;;;;;;;;;0.00;0.00;;;;;20.95;39.39;99899.72;5033691;28;46283;-68
2021/11/28 01:33:10;;;;;;;;;0.00;0.00;;;;;20.95;39.42;99907.66;5031871;28;45333;-67
2021/11/28 01:35:35;;;;;;;;;2.50;0.00;;;;;20.93;39.11;99912.31;5031986;28;45254;-68
2021/11/28 01:38:02;;;;;;;;;0.00;0.00;;;;;20.93;39.04;99913.16;5032128;28;45496;-68
2021/11/28 01:40:28;;;;;;;;;0.00;0.00;;;;;20.93;38.99;99917.63;5031363;28;46112;-68
2021/11/28 01:43:00;;;;;;;;;0.00;0.00;;;;;20.91;39.10;99914.34;5033839;28;45316;-68
2021/11/28 01:45:28;;;;;;;;;0.50;0.00;;;;;20.91;38.96;99917.81;5030472;28;45330;-67
2021/11/28 01:47:57;;;;;;;;;0.00;0.00;;;;;20.90;38.91;99934.69;5031811;27;45401;-67
2021/11/28 01:50:24;;;;;;;;;1.00;0.00;;;;;20.89;39.11;99938.34;5031666;27;48199;-68
2021/11/28 01:52:50;;;;;;;;;0.00;0.00;;;;;20.89;38.96;99933.06;5012655;28;45425;-67
2021/11/28 01:55:19;;;;;;;;;0.25;0.25;;;;;20.90;38.78;99928.56;5032314;27;45258;-68
2021/11/28 01:57:45;;;;;;;;;1.00;0.00;;;;;20.89;38.94;99935.72;5033749;27;45507;-67
2021/11/28 02:00:15;;;;;;;;;0.00;0.00;;;;;20.84;38.91;99940.78;5031393;28;47219;-68
2021/11/28 02:02:44;;;;;;;;;1.00;0.00;;;;;20.89;38.76;99942.81;5031639;28;45336;-68
2021/11/28 02:05:10;;;;;;;;;0.50;0.50;;;;;20.89;38.59;99948.94;5031724;28;45368;-68
2021/11/28 02:07:36;;;;;;;;;0.00;0.00;;;;;20.84;38.61;99936.28;5031649;28;45540;-68
2021/11/28 02:10:04;;;;;;;;;0.25;0.25;;;;;20.87;38.70;99950.13;5033100;28;46073;-67
2021/11/28 02:12:30;;;;;;;;;0.00;0.00;;;;;20.87;38.51;99947.50;5031493;28;45279;-67
2021/11/28 02:14:59;;;;;;;;;0.00;0.00;;;;;20.86;38.45;99951.97;5031428;28;45522;-67
2021/11/28 02:17:25;;;;;;;;;0.00;0.00;;;;;20.86;38.75;99957.25;5030221;28;45446;-68
2021/11/28 02:19:51;;;;;;;;;0.75;0.00;;;;;20.80;38.81;99948.25;5031277;28;45651;-67
2021/11/28 02:22:17;;;;;;;;;0.00;0.00;;;;;20.84;38.43;99954.78;5032102;28;45294;-68
2021/11/28 02:24:42;;;;;;;;;0.00;0.00;;;;;20.84;38.63;99962.72;5030899;28;45396;-67
2021/11/28 02:27:08;;;;;;;;;0.75;0.00;;;;;20.84;38.70;99964.56;5031380;28;45283;-67
2021/11/28 02:29:37;;;;;;;;;0.00;0.00;;;;;20.76;38.43;99949.66;5031063;28;45579;-67
2021/11/28 02:32:03;;;;;;;;;0.00;0.00;;;;;20.82;38.44;99959.44;5030254;28;45457;-68
2021/11/28 02:34:28;;;;;;;;;0.50;0.00;;;;;20.81;38.33;99955.19;5031312;28;45525;-67
2021/11/28 02:36:54;;;;;;;;;0.00;0.00;;;;;20.80;38.56;99966.75;5033266;28;45498;-67
2021/11/28 02:39:20;;;;;;;;;0.00;0.00;;;;;20.81;38.28;99964.94;5030695;28;45531;-67
2021/11/28 02:41:46;;;;;;;;;0.00;0.00;;;;;20.82;38.46;99962.09;5031163;28;45461;-67
2021/11/28 02:44:13;;;;;;;;;0.25;0.25;;;;;20.81;38.34;99957.00;5031057;28;45427;-67
2021/11/28 02:46:38;;;;;;;;;0.50;0.00;;;;;20.81;38.21;99955.19;5030979;28;45426;-68
2021/11/28 02:49:03;;;;;;;;;0.50;0.00;;;;;20.82;38.39;99964.75;5033080;28;47003;-67
2021/11/28 02:51:32;;;;;;;;;0.50;0.50;;;;;20.54;38.20;99918.00;5030251;28;45417;-68
2021/11/28 02:53:57;;;;;;;;;0.00;0.00;;;;;20.83;38.46;99970.84;5030745;28;45455;-68
2021/11/28 02:56:22;;;;;;;;;0.00;0.00;;;;;20.82;38.08;99970.03;5030913;28;45433;-67
2021/11/28 02:58:48;;;;;;;;;0.75;0.00;;;;;20.84;38.06;99975.13;5030702;28;46028;-68
2021/11/28 03:01:18;;;;;;;;;1.25;0.00;;;;;20.82;38.14;99967.38;5031882;28;45448;-68
2021/11/28 03:03:44;;;;;;;;;0.00;0.00;;;;;20.83;37.93;99973.50;5032767;28;45286;-67
2021/11/28 03:06:09;;;;;;;;;0.75;0.75;;;;;20.76;38.14;99964.72;5030329;28;46314;-67
2021/11/28 03:08:36;;;;;;;;;2.50;0.00;;;;;20.76;38.05;99943.56;5030772;28;45235;-68
2021/11/28 03:11:01;;;;;;;;;0.00;0.00;;;;;20.70;38.24;99951.25;5029777;28;45385;-68
2021/11/28 03:13:33;;;;;;;;;0.00;0.00;;;;;20.77;38.01;99959.22;5018166;28;45470;-68
2021/11/28 03:16:03;;;;;;;;;1.75;0.00;;;;;20.82;38.23;99961.28;5025226;28;45524;-68
2021/11/28 03:18:30;;;;;;;;;0.00;0.00;;;;;20.81;37.85;99965.78;5025721;28;45673;-67
2021/11/28 03:20:59;;;;;;;;;2.25;0.00;;;;;20.81;38.12;99959.66;5021775;28;45406;-67
2021/11/28 03:23:29;;;;;;;;;1.00;0.00;;;;;20.82;37.93;99961.28;5017841;28;45532;-67
2021/11/28 03:26:11;;;;;;;;;1.00;0.00;;;;;20.82;37.99;99969.22;5015729;28;45480;-68
2021/11/28 03:28:40;;;;;;;;;0.00;0.00;;;;;20.80;37.61;99961.47;5014747;28;47261;-67
2021/11/28 03:31:06;;;;;;;;;0.00;0.00;;;;;20.80;37.67;99960.66;5032219;28;46379;-67
2021/11/28 03:33:32;;;;;;;;;0.00;0.00;;;;;20.66;37.75;99944.69;5017928;28;45340;-67
2021/11/28 03:35:58;;;;;;;;;0.00;0.00;;;;;20.74;37.66;99957.78;5017331;28;45355;-68
2021/11/28 03:38:24;;;;;;;;;0.75;0.75;;;;;20.78;37.97;99970.63;5017472;28;45887;-68
2021/11/28 03:40:49;;;;;;;;;0.25;0.25;;;;;20.77;37.77;99964.50;5014607;28;45484;-68
2021/11/28 03:43:14;;;;;;;;;0.25;0.25;;;;;20.77;37.78;99969.78;5015084;28;45232;-68
2021/11/28 03:45:40;;;;;;;;;1.25;0.75;;;;;20.77;37.69;99966.31;5017575;28;45471;-68
2021/11/28 03:48:05;;;;;;;;;1.50;0.25;;;;;20.69;37.79;99954.06;5017509;27;46106;-67
2021/11/28 03:50:31;;;;;;;;;0.00;0.00;;;;;20.76;37.84;99965.53;5017505;28;45415;-68
2021/11/28 03:52:56;;;;;;;;;0.00;0.00;;;;;20.66;37.87;99954.47;5015767;28;47838;-68
2021/11/28 03:55:23;;;;;;;;;0.00;0.00;;;;;20.68;37.71;99963.84;5030382;28;45516;-67
2021/11/28 03:57:49;;;;;;;;;1.00;0.75;;;;;20.66;37.73;99962.41;5026603;28;46957;-67
2021/11/28 04:00:15;;;;;;;;;0.00;0.00;;;;;20.74;37.74;99973.63;5025117;28;45413;-67
2021/11/28 04:02:40;;;;;;;;;2.00;0.50;;;;;20.73;37.54;99982.59;5026876;28;45410;-68
2021/11/28 04:05:08;;;;;;;;;0.00;0.00;;;;;20.70;37.98;99971.56;5031326;28;45387;-68
2021/11/28 04:07:33;;;;;;;;;0.00;0.00;;;;;20.74;37.59;99978.94;5015925;28;47667;-68
2021/11/28 04:09:59;;;;;;;;;0.00;0.00;;;;;20.69;37.59;99977.88;5019475;28;45275;-67
2021/11/28 04:12:25;;;;;;;;;0.00;0.00;;;;;20.72;37.74;99983.59;5020300;28;46531;-68
2021/11/28 04:14:51;;;;;;;;;0.00;0.00;;;;;20.72;37.74;99990.69;5020298;28;45370;-67
2021/11/28 04:17:16;;;;;;;;;0.00;0.00;;;;;20.72;37.75;99993.34;5020006;28;47252;-68
2021/11/28 04:19:42;;;;;;;;;0.00;0.00;;;;;20.72;37.61;99993.34;5015841;28;45388;-67
2021/11/28 04:22:07;;;;;;;;;0.75;0.75;;;;;20.72;37.49;99991.53;5018692;28;45527;-68
2021/11/28 04:24:33;;;;;;;;;2.00;0.50;;;;;20.71;37.58;99995.16;5028876;28;45658;-67
2021/11/28 04:26:59;;;;;;;;;1.00;1.00;;;;;20.71;37.54;99999.66;5028038;28;45700;-67
2021/11/28 04:29:24;;;;;;;;;1.25;0.00;;;;;20.71;37.50;99999.66;5029542;28;45794;-68
2021/11/28 04:31:50;;;;;;;;;0.00;0.00;;;;;20.62;37.38;99991.03;5017560;27;45469;-67
2021/11/28 04:34:16;;;;;;;;;1.50;1.00;;;;;20.70;37.37;100003.28;5017271;28;45352;-68
2021/11/28 04:36:41;;;;;;;;;0.50;0.50;;;;;20.71;37.54;100002.31;5032349;28;45503;-68
2021/11/28 04:39:07;;;;;;;;;2.00;0.00;;;;;20.71;37.45;100002.31;5032701;28;45333;-67
2021/11/28 04:41:32;;;;;;;;;2.25;0.75;;;;;20.65;37.37;100003.06;5032528;28;45440;-68
2021/11/28 04:43:58;;;;;;;;;1.75;0.50;;;;;20.72;37.64;100014.50;5032554;27;45445;-67
2021/11/28 04:46:23;;;;;;;;;3.75;1.25;;;;;20.60;37.38;100001.00;5032364;28;46109;-67
2021/11/28 04:48:49;;;;;;;;;1.00;1.00;;;;;20.63;37.81;100003.25;5034286;28;45473;-68
2021/11/28 04:51:14;;;;;;;;;2.25;0.00;;;;;20.67;37.51;99993.94;5032497;28;45464;-67
2021/11/28 04:53:39;;;;;;;;;2.00;1.00;;;;;20.68;37.33;100018.53;5023356;27;45382;-67
2021/11/28 04:56:05;;;;;;;;;0.00;0.00;;;;;20.72;37.24;100023.25;5032392;28;45390;-68
2021/11/28 04:58:30;;;;;;;;;0.00;0.00;;;;;20.71;37.34;100013.66;5032036;28;45357;-67
2021/11/28 05:00:56;;;;;;;;;2.00;0.00;;;;;20.72;37.49;100027.72;5022311;28;45382;-68
2021/11/28 05:03:21;;;;;;;;;0.50;0.50;;;;;20.72;37.25;100025.88;5026148;28;45353;-67
2021/11/28 05:05:46;;;;;;;;;1.00;1.00;;;;;20.72;37.41;100035.63;5027624;28;46005;-67
2021/11/28 05:08:12;;;;;;;;;0.75;0.75;;;;;20.65;37.37;100024.19;5046194;28;45389;-68
2021/11/28 05:10:37;;;;;;;;;0.00;0.00;;;;;20.72;37.64;100035.63;5015449;28;45306;-67
2021/11/28 05:13:02;;;;;;;;;1.00;1.00;;;;;20.64;37.50;100023.38;5018030;28;45679;-68
2021/11/28 05:15:28;;;;;;;;;1.25;1.25;;;;;20.71;37.43;100034.81;5019196;28;46848;-68
2021/11/28 05:17:53;;;;;;;;;0.50;0.50;;;;;20.71;37.51;100050.69;5019067;28;45431;-67
2021/11/28 05:20:18;;;;;;;;;1.50;1.50;;;;;20.70;37.26;100049.06;5018960;28;46284;-67
2021/11/28 05:22:44;;;;;;;;;1.00;1.00;;;;;20.70;37.30;100053.53;5015868;27;45452;-68
2021/11/28 05:25:10;;;;;;;;;1.00;1.00;;;;;20.63;37.09;100040.25;5017844;28;46179;-67
2021/11/28 05:27:36;;;;;;;;;1.00;0.00;;;;;20.66;37.36;100049.63;5019712;28;45515;-68
2021/11/28 05:30:04;;;;;;;;;1.50;0.25;;;;;20.69;37.07;100049.22;5019374;28;45520;-67
2021/11/28 05:32:29;;;;;;;;;0.25;0.25;;;;;20.69;37.13;100054.50;5018998;28;45229;-68
2021/11/28 05:34:55;;;;;;;;;0.50;0.50;;;;;20.68;37.64;100060.81;5017014;28;45623;-67
2021/11/28 05:37:21;;;;;;;;;2.00;0.75;;;;;20.68;37.47;100063.47;5016623;28;45270;-68
2021/11/28 05:39:46;;;;;;;;;1.50;1.50;;;;;20.67;37.35;100060.00;5031777;28;45456;-68
2021/11/28 05:42:12;;;;;;;;;2.00;1.25;;;;;20.67;37.42;100065.28;5032001;28;45234;-67
2021/11/28 05:44:37;;;;;;;;;2.00;1.00;;;;;20.66;37.31;100070.78;5031579;27;47257;-68
2021/11/28 05:47:02;;;;;;;;;3.00;0.75;;;;;20.67;37.16;100077.69;5012609;28;45386;-68
2021/11/28 05:49:28;;;;;;;;;0.50;0.00;;;;;20.67;37.20;100075.88;5031930;28;45491;-68
2021/11/28 05:51:53;;;;;;;;;2.00;1.00;;;;;20.66;37.27;100079.50;5033954;28;45417;-68
2021/11/28 05:54:19;;;;;;;;;3.00;0.25;;;;;20.66;37.25;100082.16;5031568;28;47088;-68
2021/11/28 05:56:44;;;;;;;;;1.00;1.00;;;;;20.66;37.25;100084.00;5031329;28;46036;-68
2021/11/28 05:59:10;;;;;;;;;4.25;0.00;;;;;20.61;37.31;100080.06;5031820;28;45457;-68
2021/11/28 06:01:35;;;;;;;;;0.75;0.75;;;;;20.61;36.95;100072.16;4997344;28;45406;-68
2021/11/28 06:04:00;;;;;;;;;1.00;1.00;;;;;20.56;37.10;100071.91;5033691;28;46256;-67
2021/11/28 06:06:26;;;;;;;;;2.25;1.00;;;;;20.66;37.23;100079.50;5031463;28;45372;-67
2021/11/28 06:08:52;;;;;;;;;0.00;0.00;;;;;20.60;36.96;100080.28;5031641;28;45503;-67
2021/11/28 06:11:18;;;;;;;;;1.00;1.00;;;;;20.56;37.35;100069.25;5031544;28;45702;-67
2021/11/28 06:13:43;;;;;;;;;1.00;1.00;;;;;20.64;37.07;100089.44;5031397;28;47137;-68
2021/11/28 06:16:09;;;;;;;;;1.25;1.00;;;;;20.63;36.94;100083.34;5032631;28;45420;-68
2021/11/28 06:18:34;;;;;;;;;2.00;1.00;;;;;20.55;37.15;100070.28;5030541;28;45538;-68
2021/11/28 06:20:59;;;;;;;;;0.50;0.50;;;;;20.64;37.28;100086.81;5029577;28;45498;-67
2021/11/28 06:23:25;;;;;;;;;1.00;1.00;;;;;20.58;37.13;100082.31;5025871;27;46025;-67
2021/11/28 06:25:50;;;;;;;;;0.50;0.50;;;;;20.62;37.22;100083.53;5029374;28;45263;-67
2021/11/28 06:28:15;;;;;;;;;0.75;0.00;;;;;20.63;37.04;100079.91;5032383;28;45275;-68
2021/11/28 06:30:42;;;;;;;;;0.75;0.75;;;;;20.65;37.21;100090.28;5032156;28;45432;-68
2021/11/28 06:33:07;;;;;;;;;1.00;1.00;;;;;20.64;36.90;100086.81;5031118;28;45473;-67
2021/11/28 06:35:32;;;;;;;;;1.00;1.00;;;;;20.63;37.15;100093.91;5030973;27;45408;-67
2021/11/28 06:37:58;;;;;;;;;3.75;1.00;;;;;20.65;37.09;100103.50;5031409;28;45428;-68
2021/11/28 06:40:23;;;;;;;;;2.00;0.25;;;;;20.64;37.09;100102.66;5031155;28;45467;-67
2021/11/28 06:42:49;;;;;;;;;1.00;1.00;;;;;20.60;36.92;100102.25;5032841;28;50668;-67
2021/11/28 06:45:14;;;;;;;;;1.00;0.00;;;;;20.66;36.93;100110.44;5030635;28;45362;-67
2021/11/28 06:47:40;;;;;;;;;3.25;1.00;;;;;20.55;37.04;100095.88;5031022;28;45357;-67
2021/11/28 06:50:06;;;;;;;;;0.00;0.00;;;;;20.57;36.97;100099.16;5031061;28;45485;-67
2021/11/28 06:52:32;;;;;;;;;1.00;1.00;;;;;20.66;36.93;100119.16;5028826;28;48069;-68
2021/11/28 06:54:57;;;;;;;;;0.00;0.00;;;;;20.66;37.05;100111.22;5032218;28;45404;-67
2021/11/28 06:57:23;;;;;;;;;2.00;1.75;;;;;20.67;37.10;100117.34;5029565;28;45366;-67
2021/11/28 06:59:48;;;;;;;;;1.00;0.00;;;;;20.65;36.85;100114.88;5030623;28;45576;-67
2021/11/28 07:02:14;;;;;;;;;2.00;1.00;;;;;20.66;36.75;100123.66;5030588;28;45811;-67
2021/11/28 07:04:40;;;;;;;;;2.00;2.00;;;;;20.61;37.04;100122.38;5029728;28;45350;-67
2021/11/28 07:07:06;;;;;;;;;3.75;2.00;;;;;20.65;36.87;100130.75;5032994;28;45481;-67
2021/11/28 07:09:31;;;;;;;;;1.25;1.25;;;;;20.62;36.95;100131.94;5030619;28;45447;-68
2021/11/28 07:11:56;;;;;;;;;0.50;0.00;;;;;20.64;36.83;100142.31;5028631;27;48088;-68
2021/11/28 07:14:22;;;;;;;;;1.00;0.00;;;;;20.63;37.02;100143.34;5029331;28;45349;-68
2021/11/28 07:16:47;;;;;;;;;1.00;1.00;;;;;20.62;37.12;100139.88;5030772;27;45378;-68
2021/11/28 07:19:12;;;;;;;;;1.00;1.00;;;;;20.63;36.99;100141.50;5032066;28;45402;-68
2021/11/28 07:21:38;;;;;;;;;1.00;1.00;;;;;20.62;37.18;100146.97;5031117;28;46267;-67
2021/11/28 07:24:03;;;;;;;;;0.00;0.00;;;;;20.61;36.75;100154.09;5030361;28;45433;-68
2021/11/28 07:26:29;;;;;;;;;1.25;1.00;;;;;20.53;36.99;100142.81;5030471;28;45587;-67
2021/11/28 07:28:54;;;;;;;;;1.00;1.00;;;;;20.62;36.89;100165.47;5030042;28;46497;-68
2021/11/28 07:31:21;;;;;;;;;0.25;0.25;;;;;20.61;36.77;100164.66;5030884;28;47302;-68
2021/11/28 07:33:46;;;;;;;;;2.00;2.00;;;;;20.61;37.03;100169.94;5032218;28;45451;-67
2021/11/28 07:36:14;;;;;;;;;0.00;0.00;;;;;20.57;36.67;100160.75;5029599;28;45394;-68
2021/11/28 07:38:40;;;;;;;;;1.50;1.00;;;;;20.61;36.77;100177.03;5033488;28;45372;-67
2021/11/28 07:41:05;;;;;;;;;1.00;1.00;;;;;20.59;36.86;100171.13;5033036;28;46197;-67
2021/11/28 07:43:31;;;;;;;;;1.25;1.25;;;;;20.60;36.85;100178.06;5032989;27;45447;-67
2021/11/28 07:45:57;;;;;;;;;0.00;0.00;;;;;20.61;36.85;100179.69;5034624;28;45510;-68
2021/11/28 07:48:23;;;;;;;;;0.50;0.50;;;;;20.58;37.07;100174.81;5033242;28;45499;-67
2021/11/28 07:50:49;;;;;;;;;1.25;1.25;;;;;20.61;36.86;100184.97;5033118;28;45352;-67
2021/11/28 07:53:15;;;;;;;;;1.00;1.00;;;;;20.60;36.89;100188.63;5033071;28;45420;-67
2021/11/28 07:55:41;;;;;;;;;3.25;1.00;;;;;20.61;36.72;100195.53;5033296;28;45379;-67
2021/11/28 07:58:06;;;;;;;;;1.00;1.00;;;;;20.60;36.66;100193.94;5029796;28;45461;-67
2021/11/28 08:00:34;;;;;;;;;1.00;1.00;;;;;20.60;36.80;100199.22;5032824;28;46171;-68
2021/11/28 08:02:59;;;;;;;;;0.75;0.00;;;;;20.60;36.81;100204.50;5033097;28;45594;-67
2021/11/28 08:05:24;;;;;;;;;2.00;2.00;;;;;20.60;36.95;100204.50;5032994;28;45274;-68
2021/11/28 08:07:50;;;;;;;;;1.75;1.50;;;;;20.59;36.96;100211.59;5033326;28;45394;-68
2021/11/28 08:10:15;;;;;;;;;5.00;2.00;;;;;20.54;36.63;100211.34;5033879;28;46970;-67
2021/11/28 08:12:41;;;;;;;;;3.00;0.25;;;;;20.58;36.91;100212.59;5012583;28;45358;-67
2021/11/28 08:15:10;;;;;;;;;3.00;1.50;;;;;20.58;36.71;100212.59;5029572;28;45580;-67
2021/11/28 08:17:38;;;;;;;;;1.00;1.00;;;;;20.54;36.97;100216.63;5032874;28;45334;-68
2021/11/28 08:20:08;;;;;;;;;1.00;0.25;;;;;20.58;36.75;100220.53;5032453;28;46377;-68
2021/11/28 08:22:34;;;;;;;;;1.00;1.00;;;;;20.60;36.94;100225.66;5032197;28;45571;-68
2021/11/28 08:25:00;;;;;;;;;0.25;0.25;;;;;20.59;36.87;100234.56;5034475;28;45365;-68
2021/11/28 08:27:25;;;;;;;;;1.25;1.25;;;;;20.61;36.81;100232.56;5032441;28;45378;-67
2021/11/28 08:29:52;;;;;;;;;0.00;0.00;;;;;20.60;36.73;100237.03;5032434;28;47150;-67
2021/11/28 08:32:17;;;;;;;;;3.50;1.00;;;;;20.52;36.62;100237.13;5032622;28;45563;-67
2021/11/28 08:34:43;;;;;;;;;1.00;1.00;;;;;20.60;36.84;100241.50;5032672;28;45369;-68
2021/11/28 08:37:09;;;;;;;;;3.00;1.00;;;;;20.60;36.58;100250.25;5034614;28;45276;-68
2021/11/28 08:39:35;;;;;;;;;2.00;0.00;;;;;20.61;36.80;100245.75;5032907;28;46872;-68
2021/11/28 08:42:03;;;;;;;;;1.75;1.00;;;;;20.61;36.58;100241.31;5032245;28;45281;-67
2021/11/28 08:44:30;;;;;;;;;1.75;1.00;;;;;20.60;36.54;100252.91;5032821;28;45481;-67
2021/11/28 08:46:55;;;;;;;;;0.75;0.75;;;;;20.55;36.50;100234.13;5032402;28;45454;-66
2021/11/28 08:49:21;;;;;;;;;1.00;1.00;;;;;20.62;36.62;100247.41;5032120;27;45949;-67
2021/11/28 08:51:46;;;;;;;;;2.50;0.75;;;;;20.62;36.44;100252.69;5034271;28;45478;-67
2021/11/28 08:54:13;;;;;;;;;1.50;0.00;;;;;20.63;36.42;100249.06;5030926;28;45820;-68
2021/11/28 08:56:42;;;;;;;;;2.50;1.75;;;;;20.61;36.54;100251.88;5032374;28;46239;-68
2021/11/28 08:59:08;;;;;;;;;2.00;0.50;;;;;20.61;36.53;100259.81;5032283;27;46362;-67
2021/11/28 09:01:33;;;;;;;;;1.50;1.00;;;;;20.61;36.45;100251.06;5031805;28;45473;-67
2021/11/28 09:03:59;;;;;;;;;1.00;1.00;;;;;20.61;36.41;100259.81;5033871;28;45671;-67
2021/11/28 09:06:24;;;;;;;;;0.50;0.50;;;;;20.60;36.59;100255.53;5032237;28;45359;-67
2021/11/28 09:08:49;;;;;;;;;1.00;1.00;;;;;20.59;36.62;100259.19;5031691;28;45400;-68
2021/11/28 09:11:15;;;;;;;;;1.00;1.00;;;;;20.50;36.48;100250.56;5032168;28;45467;-68
2021/11/28 09:13:41;;;;;;;;;3.00;1.00;;;;;20.59;36.71;100266.28;5032497;28;45432;-67
2021/11/28 09:16:10;;;;;;;;;0.75;0.75;;;;;20.59;36.67;100268.94;5034440;28;45471;-67
2021/11/28 09:18:41;;;;;;;;;4.25;0.75;;;;;20.51;36.56;100267.19;5032463;27;45353;-67
2021/11/28 09:21:06;;;;;;;;;3.75;0.00;;;;;20.57;36.58;100279.69;5031704;28;45383;-67
2021/11/28 09:26:16;;;;;;;;;0.00;0.00;;;;;20.57;36.57;100273.59;5032106;28;45520;-68
2021/11/28 09:28:41;;;;;;;;;1.00;1.00;;;;;20.58;36.43;100272.59;5031933;28;45467;-68
2021/11/28 09:31:10;;;;;;;;;1.00;0.75;;;;;20.58;36.66;100272.59;5034288;28;45361;-67
2021/11/28 09:33:39;;;;;;;;;2.00;1.00;;;;;20.58;36.54;100275.22;5030081;28;45361;-67
2021/11/28 09:36:05;;;;;;;;;0.00;0.00;;;;;20.57;36.55;100270.94;5031656;28;45403;-67
2021/11/28 09:38:31;;;;;;;;;2.00;1.75;;;;;20.57;36.48;100270.94;5031290;28;46939;-68
2021/11/28 09:41:01;;;;;;;;;1.00;1.00;;;;;20.56;36.62;100278.03;5030606;28;45429;-68
2021/11/28 09:43:27;;;;;;;;;2.75;2.00;;;;;20.57;36.48;100282.34;5032096;28;45419;-68
2021/11/28 09:45:55;;;;;;;;;0.50;0.00;;;;;20.56;36.63;100274.56;5047301;27;45389;-68
2021/11/28 09:48:23;;;;;;;;;1.00;1.00;;;;;20.56;36.49;100279.84;5021664;27;45567;-68
2021/11/28 09:50:48;;;;;;;;;2.00;1.00;;;;;20.55;36.64;100279.06;5021169;28;45532;-67
2021/11/28 09:53:15;;;;;;;;;1.25;1.25;;;;;20.56;36.34;100272.75;5026932;28;45437;-67
2021/11/28 09:55:42;;;;;;;;;2.00;2.00;;;;;20.56;36.61;100277.22;5031493;28;45271;-67
2021/11/28 09:58:08;;;;;;;;;1.00;1.00;;;;;20.56;36.28;100269.28;5029941;28;46144;-67
2021/11/28 10:00:35;;;;;;;;;2.00;1.00;;;;;20.55;36.76;100272.94;5017577;28;45567;-67
2021/11/28 10:03:00;;;;;;;;;2.00;1.00;;;;;20.55;36.48;100273.78;5018848;27;45475;-67
2021/11/28 10:05:26;;;;;;;;;0.50;0.50;;;;;20.46;36.70;100270.41;5001747;28;45494;-68
2021/11/28 10:07:51;;;;;;;;;1.25;1.25;;;;;20.53;36.47;100273.16;5029419;28;45371;-67
2021/11/28 10:10:19;;;;;;;;;5.00;2.25;;;;;20.54;36.26;100281.88;5029761;28;45369;-68
2021/11/28 10:12:51;;;;;;;;;0.00;0.00;;;;;20.43;36.05;100268.13;5019673;27;45304;-68
2021/11/28 10:15:25;;;;;;;;;1.00;1.00;;;;;20.54;36.53;100282.69;5009390;28;45504;-68
2021/11/28 10:17:51;;;;;;;;;1.50;1.00;;;;;20.49;36.67;100271.84;5021125;28;45441;-67
2021/11/28 10:20:20;;;;;;;;;1.00;1.00;;;;;20.54;36.65;100280.06;5028416;28;45469;-68
2021/11/28 10:22:46;;;;;;;;;3.50;0.75;;;;;20.56;36.42;100282.50;5015020;28;45397;-67
2021/11/28 10:25:21;;;;;;;;;2.00;2.00;;;;;20.55;36.40;100284.34;5016702;28;45482;-67
2021/11/28 10:27:50;;;;;;;;;0.50;0.50;;;;;20.55;36.40;100284.34;5033181;28;46401;-68
2021/11/28 10:30:37;;;;;;;;;0.50;0.50;;;;;20.55;36.48;100287.00;5031115;28;45381;-67
2021/11/28 10:33:17;;;;;;;;;3.00;1.00;;;;;20.56;36.40;100285.16;5031340;28;45463;-68
2021/11/28 10:36:10;;;;;;;;;2.00;1.00;;;;;20.55;36.52;100281.72;5030796;28;45408;-67
2021/11/28 10:38:44;;;;;;;;;1.75;1.75;;;;;20.56;36.59;100293.91;5030884;28;46399;-68
2021/11/28 10:41:25;;;;;;;;;1.25;1.25;;;;;20.57;36.44;100286.78;5031114;28;45460;-68
2021/11/28 10:43:51;;;;;;;;;1.00;1.00;;;;;20.57;36.54;100290.25;5017766;28;45398;-67
2021/11/28 10:46:32;;;;;;;;;2.00;0.00;;;;;20.57;36.31;100284.97;5014361;28;45439;-68
2021/11/28 10:49:09;;;;;;;;;1.00;1.00;;;;;20.58;36.52;100283.16;5032925;28;46307;-68
2021/11/28 10:51:38;;;;;;;;;0.75;0.75;;;;;20.57;36.32;100284.16;5028170;28;45529;-67
2021/11/28 10:54:36;;;;;;;;;1.50;1.00;;;;;20.57;36.40;100276.22;5031005;28;45380;-67
2021/11/28 10:57:07;;;;;;;;;0.50;0.50;;;;;20.57;36.51;100271.75;5030420;28;45215;-67
2021/11/28 10:59:37;;;;;;;;;1.50;1.50;;;;;20.56;36.37;100267.47;5029551;28;45464;-68
2021/11/28 11:02:23;;;;;;;;;2.00;2.00;;;;;20.54;36.19;100256.28;5014657;28;45550;-67
2021/11/28 11:04:52;;;;;;;;;0.75;0.00;;;;;20.55;36.64;100268.50;5018416;28;45358;-67
2021/11/28 11:07:21;;;;;;;;;1.00;1.00;;;;;20.55;36.49;100265.84;5095924;27;45449;-67
2021/11/28 11:09:48;;;;;;;;;1.00;1.00;;;;;20.56;36.52;100271.94;5027921;28;46366;-67
2021/11/28 11:12:17;;;;;;;;;5.00;2.00;;;;;20.55;36.17;100265.03;5026185;27;45463;-68
2021/11/28 11:14:43;;;;;;;;;2.00;1.00;;;;;20.47;36.29;100253.56;5026121;28;45240;-68
2021/11/28 11:17:10;;;;;;;;;1.00;1.00;;;;;20.54;36.37;100273.94;5026471;28;45624;-68
2021/11/28 11:19:40;;;;;;;;;0.50;0.25;;;;;20.54;36.50;100260.72;5029899;28;48677;-67
2021/11/28 11:22:22;;;;;;;;;2.00;1.00;;;;;20.55;36.45;100265.03;5028514;28;45416;-68
2021/11/28 11:24:59;;;;;;;;;2.25;1.00;;;;;20.54;36.37;100276.59;5027946;28;45465;-68
2021/11/28 11:27:36;;;;;;;;;1.00;1.00;;;;;20.44;36.64;100253.91;5025961;28;45368;-67
2021/11/28 11:30:07;;;;;;;;;1.00;1.00;;;;;20.53;36.17;100283.72;5021854;28;45519;-68
2021/11/28 11:32:55;;;;;;;;;2.00;0.00;;;;;20.45;36.18;100274.06;5017532;28;45405;-67
2021/11/28 11:35:26;;;;;;;;;0.00;0.00;;;;;20.53;36.37;100283.72;5017166;28;45318;-68